Flight Track Log - Related Links

Times and Time Zones

All times are in EDT time to prevent confusion due to time zone crossing. See the AAL1459 flight status page for this flight to view local times or setup timezone preferences in your user account.

Time Position Orientation Groundspeed Altitude Reporting Facility
EDT Latitude Longitude Course Direction KTS MPH feet Rate Location/Type
Sun 06:23:18 PM 41.9390 -87.9130 222° Southwest 166 191 2,300  Level FlightAware ADS-B
Sun 06:23:43 PM 41.9210 -87.9270 210° Southwest 199 229 2,900 1,745 Climbing FlightAware ADS-B
Sun 06:24:13 PM 41.8960 -87.9480 212° Southwest 227 261 3,900 2,533 Climbing FlightAware ADS-B
Sun 06:24:28 PM 41.8800 -87.9600 209° Southwest 233 268 4,800 3,067 Climbing FlightAware ADS-B
Sun 06:24:58 PM 41.8570 -87.9880 222° Southwest 250 288 6,200 3,491 Climbing FlightAware ADS-B
Sun 06:25:23 PM 41.8480 -88.0260 252° West 247 284 8,000 3,382 Climbing FlightAware ADS-B
Sun 06:25:53 PM 41.8540 -88.0690 281° West 271 312 9,300 3,000 Climbing FlightAware ADS-B
Sun 06:26:33 PM 41.8770 -88.1330 296° West 277 319 11,500 2,100 Climbing FlightAware ADS-B
Sun 06:27:13 PM 41.9000 -88.2010 294° West 327 376 12,100 1,341 Climbing FlightAware ADS-B
Sun 06:27:58 PM 41.9370 -88.2840 301° West 375 432 13,400 2,280 Climbing FlightAware ADS-B
Sun 06:28:53 PM 41.9960 -88.3770 311° West 374 430 15,900 2,640 Climbing FlightAware ADS-B
Sun 06:29:38 PM 42.0340 -88.4750 298° West 368 423 17,800 2,188 Climbing FlightAware ADS-B
Sun 06:30:18 PM 42.0550 -88.5600 288° West 377 434 19,000 1,705 Climbing FlightAware ADS-B
Sun 06:31:13 PM 42.0640 -88.6900 275° West 388 447 20,500 1,860 Climbing FlightAware ADS-B
Sun 06:31:58 PM 42.0580 -88.7980 266° West 390 449 22,100 1,800 Climbing FlightAware ADS-B
Sun 06:32:33 PM 42.0540 -88.8740 266° West 393 452 22,900 1,575 Climbing FlightAware ADS-B
Sun 06:33:18 PM 42.0460 -89.0000 265° West 407 468 24,200 1,575 Climbing FlightAware ADS-B
Sun 06:33:53 PM 42.0410 -89.0880 266° West 417 480 25,000 1,835 Climbing FlightAware ADS-B
Sun 06:34:43 PM 42.0590 -89.2080 281° West 412 474 26,800 2,000 Climbing FlightAware ADS-B
Sun 06:35:23 PM 42.0780 -89.3130 284° West 411 473 28,000 847 Climbing FlightAware ADS-B
Sun 06:36:08 PM 42.0990 -89.4240 284° West 417 480 28,000  Level FlightAware ADS-B
Sun 06:36:48 PM 42.1180 -89.5280 284° West 418 481 28,000  Level FlightAware ADS-B
Sun 06:37:28 PM 42.1370 -89.6250 285° West 419 482 28,000  Level FlightAware ADS-B
Sun 06:38:08 PM 42.1560 -89.7270 284° West 423 487 28,000  Level FlightAware ADS-B
Sun 06:38:53 PM 42.1780 -89.8400 285° West 425 489 28,000  Level FlightAware ADS-B
Sun 06:39:38 PM 42.1990 -89.9570 284° West 424 488 28,000  Level FlightAware ADS-B
Sun 06:40:18 PM 42.2180 -90.0590 284° West 423 487 28,000  Level FlightAware ADS-B
Sun 06:41:03 PM 42.2400 -90.1740 285° West 421 484 28,000  Level FlightAware ADS-B
Sun 06:41:43 PM 42.2590 -90.2790 284° West 419 482 28,000  Level FlightAware ADS-B
Sun 06:42:23 PM 42.2770 -90.3810 283° West 418 481 28,000  Level FlightAware ADS-B
Sun 06:43:08 PM 42.2970 -90.4880 284° West 418 481 28,000  Level FlightAware ADS-B
Sun 06:43:38 PM 42.3120 -90.5710 284° West 420 483 28,000  Level FlightAware ADS-B
Sun 06:44:28 PM 42.3340 -90.6980 283° West 421 484 28,000  Level FlightAware ADS-B
Sun 06:45:13 PM 42.3530 -90.8040 284° West 421 484 28,000  Level FlightAware ADS-B
Sun 06:45:53 PM 42.3720 -90.9060 284° West 421 484 28,000  Level FlightAware ADS-B
Sun 06:46:38 PM 42.3920 -91.0210 283° West 419 482 28,000  Level FlightAware ADS-B
Sun 06:47:13 PM 42.4070 -91.1070 283° West 416 479 28,000  Level FlightAware ADS-B
Sun 06:48:13 PM 42.4320 -91.2530 283° West 415 478 28,000  Level FlightAware ADS-B
Sun 06:48:58 PM 42.4540 -91.3770 284° West 411 473 28,000  Level FlightAware ADS-B
Sun 06:49:38 PM 42.4710 -91.4770 283° West 411 473 28,000  Level FlightAware ADS-B
Sun 06:50:23 PM 42.4910 -91.5930 283° West 412 474 28,000  Level FlightAware ADS-B
Sun 06:51:03 PM 42.5070 -91.6890 283° West 411 473 28,000  Level FlightAware ADS-B
Sun 06:51:43 PM 42.5250 -91.7930 283° West 411 473 28,000  Level FlightAware ADS-B
Sun 06:52:28 PM 42.5430 -91.9030 283° West 411 473 28,000  Level FlightAware ADS-B
Sun 06:53:08 PM 42.5600 -92.0040 283° West 410 472 28,000  Level FlightAware ADS-B
Sun 06:53:48 PM 42.5760 -92.1010 283° West 411 473 28,000  Level FlightAware ADS-B
Sun 06:54:28 PM 42.5920 -92.2010 282° West 411 473 28,000  Level FlightAware ADS-B
Sun 06:55:13 PM 42.6110 -92.3140 283° West 412 474 28,000  Level FlightAware ADS-B
Sun 06:56:08 PM 42.6340 -92.4520 283° West 405 466 28,000  Level FlightAware ADS-B
Sun 06:57:08 PM 42.6400 -92.6080 273° West 394 453 28,000  Level FlightAware ADS-B
Sun 06:57:58 PM 42.6360 -92.7380 268° West 391 450 28,000  Level FlightAware ADS-B
Sun 06:58:38 PM 42.6340 -92.8260 268° West 389 448 28,000  Level FlightAware ADS-B
Sun 06:59:18 PM 42.6320 -92.9170 268° West 388 447 28,000  Level FlightAware ADS-B
Sun 07:00:08 PM 42.6290 -93.0440 268° West 388 447 28,000  Level FlightAware ADS-B
Sun 07:00:48 PM 42.6270 -93.1270 268° West 388 447 28,000  Level FlightAware ADS-B
Sun 07:01:28 PM 42.6250 -93.2100 268° West 388 447 28,000  Level FlightAware ADS-B
Sun 07:02:18 PM 42.6220 -93.3140 268° West 388 447 28,000  Level FlightAware ADS-B
Sun 07:02:58 PM 42.6200 -93.3970 268° West 388 447 28,000  Level FlightAware ADS-B
Sun 07:03:44 PM 42.6714 -93.5642 268° West 411 473 28,000  Level Minneapolis Center
Sun 07:04:45 PM 42.7006 -93.7444 282° West 410 472 28,000  Level Minneapolis Center
Sun 07:05:47 PM 42.7250 -93.8986 282° West 418 481 28,000  Level Minneapolis Center
Sun 07:06:49 PM 42.7494 -94.0525 282° West 419 482 28,000  Level Minneapolis Center
Sun 07:07:50 PM 42.7744 -94.2083 282° West 424 488 28,000  Level Minneapolis Center
Sun 07:08:52 PM 42.7981 -94.3633 282° West 422 486 28,000  Level Minneapolis Center
Sun 07:09:54 PM 42.8222 -94.5217 282° West 428 493 28,000  Level Minneapolis Center
Sun 07:10:55 PM 42.8514 -94.7078 282° West 429 494 28,000  Level Minneapolis Center
Sun 07:11:57 PM 42.8747 -94.8656 281° West 425 489 28,000  Level Minneapolis Center
Sun 07:12:59 PM 42.8975 -95.0156 282° West 410 472 28,000  Level Minneapolis Center
Sun 07:14:01 PM 42.9197 -95.1656 281° West 405 466 28,000  Level Minneapolis Center
Sun 07:15:02 PM 42.9422 -95.3200 281° West 409 471 28,000  Level Minneapolis Center
Sun 07:16:04 PM 42.9650 -95.4753 281° West 415 478 28,000  Level Minneapolis Center
Sun 07:17:06 PM 42.9922 -95.6639 281° West 420 483 28,000  Level Minneapolis Center
Sun 07:18:08 PM 43.0142 -95.8219 281° West 423 487 28,000  Level Minneapolis Center
Sun 07:19:09 PM 43.0364 -95.9775 281° West 420 483 28,000  Level Minneapolis Center
Sun 07:20:11 PM 43.0578 -96.1325 281° West 417 480 28,000  Level Minneapolis Center
Sun 07:21:13 PM 43.0786 -96.2869 281° West 413 475 28,000  Level Minneapolis Center
Sun 07:22:14 PM 43.0994 -96.4408 281° West 412 474 28,000  Level Minneapolis Center
Sun 07:23:16 PM 43.1208 -96.5950 281° West 413 475 28,000  Level Minneapolis Center
Sun 07:24:18 PM 43.1414 -96.7525 280° West 418 481 28,000  Level Minneapolis Center
Sun 07:25:19 PM 43.1667 -96.9433 280° West 424 488 28,000  Level Minneapolis Center
Sun 07:26:21 PM 43.1875 -97.1019 280° West 424 488 28,000  Level Minneapolis Center
Sun 07:27:23 PM 43.2072 -97.2619 280° West 426 490 28,000  Level Minneapolis Center
Sun 07:28:24 PM 43.2278 -97.4203 280° West 423 487 28,000  Level Minneapolis Center
Sun 07:29:26 PM 43.2481 -97.5797 280° West 424 488 28,000  Level Minneapolis Center
Sun 07:30:27 PM 43.2639 -97.7056 280° West 421 484 28,000  Level Minneapolis Center
Sun 07:31:29 PM 43.2869 -97.8944 280° West 419 482 28,000  Level Minneapolis Center
Sun 07:32:31 PM 43.3050 -98.0497 279° West 415 478 28,000  Level Minneapolis Center
Sun 07:33:33 PM 43.3278 -98.2381 280° West 416 479 28,000  Level Minneapolis Center
Sun 07:34:34 PM 43.3467 -98.3947 279° West 416 479 28,000  Level Minneapolis Center
Sun 07:35:36 PM 43.3642 -98.5497 279° West 413 475 28,000  Level Minneapolis Center
Sun 07:36:38 PM 43.3828 -98.7042 279° West 411 473 28,000  Level Minneapolis Center
Sun 07:37:39 PM 43.4000 -98.8606 279° West 414 476 28,000  Level Minneapolis Center
Sun 07:38:41 PM 43.4203 -99.0378 279° West 415 478 28,000  Level Minneapolis Center
Sun 07:39:42 PM 43.4372 -99.1947 279° West 415 478 28,000  Level Minneapolis Center
Sun 07:40:44 PM 43.4547 -99.3525 279° West 415 478 28,000  Level Minneapolis Center
Sun 07:41:46 PM 43.4717 -99.5117 278° West 418 481 28,000  Level Minneapolis Center
Sun 07:42:47 PM 43.4886 -99.6664 279° West 411 473 28,000  Level Minneapolis Center
Sun 07:43:49 PM 43.5044 -99.8228 278° West 412 474 28,000  Level Minneapolis Center
Sun 07:44:50 PM 43.5206 -99.9775 278° West 410 472 28,000  Level Minneapolis Center
Sun 07:45:52 PM 43.5367 -100.1339 278° West 410 472 28,000  Level Minneapolis Center
Sun 07:46:54 PM 43.5525 -100.2903 278° West 410 472 28,000  Level Minneapolis Center
Sun 07:47:55 PM 43.5711 -100.4792 278° West 411 473 28,000  Level Minneapolis Center
Sun 07:48:57 PM 43.5853 -100.6358 277° West 411 473 28,000  Level Minneapolis Center
Sun 07:49:58 PM 43.6011 -100.7972 278° West 415 478 28,000  Level Minneapolis Center
Sun 07:51:00 PM 43.6161 -100.9592 277° West 419 482 28,000  Level Minneapolis Center
Sun 07:52:02 PM 43.6319 -101.1208 278° West 421 484 28,000  Level Minneapolis Center
Sun 07:53:03 PM 43.6472 -101.2808 278° West 422 486 28,000  Level Minneapolis Center
Sun 07:54:19 PM 43.6642 -101.4711 277° West 417 480 28,000  Level Denver Center
Sun 07:55:21 PM 43.6819 -101.6622 277° West 418 481 28,000  Level Denver Center
Sun 07:56:22 PM 43.6947 -101.8189 276° West 412 474 28,000  Level Denver Center
Sun 07:57:24 PM 43.7092 -101.9803 277° West 420 483 28,000  Level Denver Center
Sun 07:58:26 PM 43.7231 -102.1378 277° West 421 484 28,000  Level Denver Center
Sun 07:59:27 PM 43.7372 -102.3172 276° West 422 486 28,000  Level Denver Center
Sun 08:00:29 PM 43.7497 -102.4694 277° West 418 481 28,000  Level Denver Center
Sun 08:01:31 PM 43.7622 -102.6233 276° West 419 482 28,000  Level Denver Center
Sun 08:02:33 PM 43.7772 -102.8017 277° West 421 484 28,000  Level Denver Center
Sun 08:03:35 PM 43.7886 -102.9542 276° West 417 480 28,000  Level Denver Center
Sun 08:04:36 PM 43.8017 -103.1336 276° West 419 482 28,000  Level Denver Center
Sun 08:05:38 PM 43.8128 -103.2869 276° West 419 482 28,000  Level Denver Center
Sun 08:06:40 PM 43.8267 -103.4639 276° West 418 481 28,000  Level Denver Center
Sun 08:07:42 PM 43.8372 -103.6128 276° West 411 473 28,000  Level Denver Center
Sun 08:08:44 PM 43.8500 -103.7867 276° West 407 468 28,000  Level Denver Center
Sun 08:09:46 PM 43.8592 -103.9350 275° West 406 467 28,000  Level Denver Center
Sun 08:10:47 PM 43.8706 -104.1081 275° West 407 468 28,000  Level Denver Center
Sun 08:11:49 PM 43.8803 -104.2561 275° West 405 466 28,000  Level Denver Center
Sun 08:12:51 PM 43.8914 -104.4294 275° West 405 466 28,000  Level Denver Center
Sun 08:13:53 PM 43.9006 -104.5767 275° West 403 464 28,000  Level Denver Center
Sun 08:14:55 PM 43.9094 -104.7250 275° West 404 465 28,000  Level Denver Center
Sun 08:15:57 PM 43.9194 -104.8956 275° West 399 459 28,000  Level Denver Center
Sun 08:16:58 PM 43.9286 -105.0442 275° West 403 464 28,000  Level Denver Center
Sun 08:18:00 PM 43.9383 -105.2189 274° West 407 468 28,000  Level Denver Center
Sun 08:19:02 PM 43.9456 -105.3664 274° West 407 468 28,000  Level Denver Center
Sun 08:20:04 PM 43.9564 -105.5353 275° West 398 458 28,000  Level Denver Center
Sun 08:21:06 PM 43.9639 -105.6825 274° West 399 459 28,000  Level Denver Center
Sun 08:22:07 PM 43.9717 -105.8550 274° West 400 460 28,000  Level Denver Center
Sun 08:23:09 PM 43.9792 -106.0014 274° West 399 459 28,000  Level Denver Center
Sun 08:24:11 PM 43.9875 -106.1492 275° West 400 460 28,000  Level Denver Center
Sun 08:25:13 PM 43.9953 -106.3197 274° West 398 458 28,000  Level Denver Center
Sun 08:26:15 PM 43.9914 -106.4650 268° West 395 455 28,000  Level Denver Center
Sun 08:27:17 PM 43.9464 -106.6261 249° West 401 461 28,000  Level Denver Center
Sun 08:28:18 PM 43.9086 -106.7639 249° West 401 461 28,000  Level Denver Center
Sun 08:29:20 PM 43.8628 -106.9242 248° West 394 453 28,000  Level Denver Center
Sun 08:29:54 PM 43.8414 -106.9942 247° West 393 452 28,000  Level Salt Lake Center
Sun 08:30:55 PM 43.8044 -107.1247 249° West 384 442 28,000  Level Salt Lake Center
Sun 08:31:57 PM 43.7606 -107.2800 249° West 386 444 28,000  Level Salt Lake Center
Sun 08:32:59 PM 43.7236 -107.4106 249° West 382 440 28,000  Level Salt Lake Center
Sun 08:34:00 PM 43.6794 -107.5647 248° West 384 442 28,000  Level Salt Lake Center
Sun 08:35:02 PM 43.6417 -107.6942 248° West 379 436 28,000  Level Salt Lake Center
Sun 08:36:04 PM 43.6036 -107.8242 248° West 381 438 28,000  Level Salt Lake Center
Sun 08:37:05 PM 43.5603 -107.9706 248° West 370 426 28,000  Level Salt Lake Center
Sun 08:38:07 PM 43.5236 -108.0961 248° West 369 425 28,000  Level Salt Lake Center
Sun 08:39:09 PM 43.4811 -108.2403 248° West 362 417 28,000  Level Salt Lake Center
Sun 08:40:10 PM 43.4444 -108.3664 248° West 367 422 28,000  Level Salt Lake Center
Sun 08:41:12 PM 43.4047 -108.5114 249° West 362 417 28,000  Level Salt Lake Center
Sun 08:42:13 PM 43.3686 -108.6347 248° West 363 418 28,000  Level Salt Lake Center
Sun 08:43:15 PM 43.3339 -108.7581 249° West 364 419 28,000  Level Salt Lake Center
Sun 08:44:17 PM 43.2931 -108.8994 248° West 357 411 28,000  Level Salt Lake Center
Sun 08:45:18 PM 43.2575 -109.0200 248° West 356 410 28,000  Level Salt Lake Center
Sun 08:46:20 PM 43.2178 -109.1617 249° West 355 409 28,000  Level Salt Lake Center
Sun 08:47:22 PM 43.1831 -109.2797 248° West 351 404 28,000  Level Salt Lake Center
Sun 08:48:23 PM 43.1478 -109.4019 248° West 359 413 28,000  Level Salt Lake Center
Sun 08:49:25 PM 43.1061 -109.5436 248° West 359 413 28,000  Level Salt Lake Center
Sun 08:50:26 PM 43.0703 -109.6661 248° West 360 414 28,000  Level Salt Lake Center
Sun 08:51:28 PM 43.0281 -109.8094 248° West 364 419 28,000  Level Salt Lake Center
Sun 08:52:30 PM 42.9925 -109.9258 247° West 362 417 28,000  Level Salt Lake Center
Sun 08:53:31 PM 42.9506 -110.0669 248° West 360 414 28,000  Level Salt Lake Center
Sun 08:54:33 PM 42.9139 -110.1869 247° West 358 412 28,000  Level Salt Lake Center
Sun 08:55:34 PM 42.8756 -110.3139 248° West 359 413 28,000  Level Salt Lake Center
Sun 08:56:36 PM 42.8328 -110.4525 247° West 356 410 28,000  Level Salt Lake Center
Sun 08:57:37 PM 42.7978 -110.5711 248° West 355 409 28,000  Level Salt Lake Center
Sun 08:58:39 PM 42.7575 -110.7033 248° West 352 405 28,000  Level Salt Lake Center
Sun 08:59:40 PM 42.7200 -110.8231 247° West 357 411 28,000  Level Salt Lake Center
Sun 09:00:42 PM 42.6789 -110.9522 247° West 362 417 28,000  Level Salt Lake Center
Sun 09:01:43 PM 42.6406 -111.0758 247° West 357 411 28,000  Level Salt Lake Center
Sun 09:02:45 PM 42.6019 -111.1989 247° West 357 411 28,000  Level Salt Lake Center
Sun 09:03:46 PM 42.5633 -111.3219 247° West 357 411 28,000  Level Salt Lake Center
Sun 09:04:47 PM 42.5156 -111.4717 247° West 360 414 28,000  Level Salt Lake Center
Sun 09:10:28 PM 42.2890 -112.1780 247° West 366 421 28,000  Level FlightAware ADS-B
Sun 09:11:28 PM 42.2480 -112.3030 246° West 368 423 28,000  Level FlightAware ADS-B
Sun 09:15:03 PM 42.1020 -112.7400 246° West 365 420 28,000  Level FlightAware ADS-B
Sun 09:19:23 PM 41.9040 -113.2870 244° Southwest 372 428 28,000  Level FlightAware ADS-B
Sun 09:20:23 PM 41.8590 -113.4100 244° Southwest 370 426 28,000  Level FlightAware ADS-B
Sun 09:22:58 PM 41.7430 -113.7180 243° Southwest 369 425 28,000  Level FlightAware ADS-B
Sun 09:23:43 PM 41.7080 -113.8110 243° Southwest 365 420 28,000  Level FlightAware ADS-B
Sun 09:24:18 PM 41.6840 -113.8740 243° Southwest 367 422 28,000  Level FlightAware ADS-B
Sun 09:25:03 PM 41.6470 -113.9690 242° Southwest 367 422 28,000  Level FlightAware ADS-B
Sun 09:25:43 PM 41.6210 -114.0380 243° Southwest 367 422 28,000  Level FlightAware ADS-B
Sun 09:26:23 PM 41.5950 -114.1070 243° Southwest 367 422 28,000  Level FlightAware ADS-B
Sun 09:27:13 PM 41.5620 -114.1930 243° Southwest 367 422 28,000  Level FlightAware ADS-B
Sun 09:27:53 PM 41.5360 -114.2610 243° Southwest 367 422 28,000  Level FlightAware ADS-B
Sun 09:28:19 PM 41.5019 -114.3436 243° Southwest 357 411 28,000  Level Salt Lake Center
Sun 09:29:20 PM 41.4578 -114.4608 243° Southwest 355 409 28,000  Level Salt Lake Center
Sun 09:30:22 PM 41.4028 -114.5997 242° Southwest 354 407 28,000  Level Salt Lake Center
Sun 09:31:23 PM 41.3581 -114.7164 243° Southwest 355 409 28,000  Level Salt Lake Center
Sun 09:32:24 PM 41.3122 -114.8336 243° Southwest 357 411 28,000  Level Salt Lake Center
Sun 09:33:26 PM 41.2625 -114.9575 242° Southwest 355 409 28,000  Level Salt Lake Center
Sun 09:34:27 PM 41.2181 -115.0700 242° Southwest 358 412 28,000  Level Salt Lake Center
Sun 09:35:28 PM 41.1744 -115.1831 243° Southwest 359 413 28,000  Level Salt Lake Center
Sun 09:36:30 PM 41.1217 -115.3150 242° Southwest 362 417 28,000  Level Salt Lake Center
Sun 09:37:31 PM 41.0758 -115.4272 242° Southwest 361 415 28,000  Level Salt Lake Center
Sun 09:38:32 PM 41.0314 -115.5400 242° Southwest 361 415 28,000  Level Salt Lake Center
Sun 09:39:34 PM 40.9789 -115.6711 242° Southwest 360 414 28,000  Level Salt Lake Center
Sun 09:40:35 PM 40.9333 -115.7822 242° Southwest 360 414 28,000  Level Salt Lake Center
Sun 09:41:36 PM 40.8803 -115.9164 242° Southwest 365 420 28,000  Level Salt Lake Center
Sun 09:42:38 PM 40.8333 -116.0308 242° Southwest 369 425 28,000  Level Salt Lake Center
Sun 09:43:39 PM 40.7869 -116.1425 241° Southwest 365 420 28,000  Level Salt Lake Center
Sun 09:44:40 PM 40.7331 -116.2764 242° Southwest 367 422 28,000  Level Salt Lake Center
Sun 09:45:42 PM 40.6861 -116.3894 241° Southwest 369 425 28,000  Level Salt Lake Center
Sun 09:46:43 PM 40.6331 -116.5178 241° Southwest 361 415 28,000  Level Salt Lake Center
Sun 09:47:44 PM 40.5864 -116.6289 241° Southwest 362 417 28,000  Level Salt Lake Center
Sun 09:48:45 PM 40.5403 -116.7394 241° Southwest 361 415 28,000  Level Salt Lake Center
Sun 09:49:47 PM 40.4881 -116.8656 241° Southwest 356 410 28,000  Level Salt Lake Center
Sun 09:50:48 PM 40.4436 -116.9717 241° Southwest 356 410 28,000  Level Salt Lake Center
Sun 09:51:49 PM 40.3908 -117.0950 241° Southwest 351 404 28,000  Level Salt Lake Center
Sun 09:52:51 PM 40.3453 -117.2033 241° Southwest 354 407 28,000  Level Salt Lake Center
Sun 09:53:52 PM 40.2906 -117.3297 240° Southwest 356 410 28,000  Level Salt Lake Center
Sun 09:54:54 PM 40.2458 -117.4356 241° Southwest 351 404 28,000  Level Salt Lake Center
Sun 09:55:55 PM 40.2003 -117.5425 241° Southwest 351 404 28,000  Level Salt Lake Center
Sun 09:56:56 PM 40.1456 -117.6658 240° Southwest 352 405 28,000  Level Salt Lake Center
Sun 09:57:58 PM 40.1017 -117.7717 242° Southwest 347 399 28,000  Level Salt Lake Center
Sun 09:58:59 PM 40.0483 -117.8922 240° Southwest 348 400 28,000  Level Salt Lake Center
Sun 10:00:00 PM 40.0011 -118.0019 241° Southwest 348 400 28,000 -496 Level Salt Lake Center
Sun 10:01:12 PM 39.9436 -118.1367 241° Southwest 352 405 26,900 -902 Descending Oakland Center
Sun 10:02:13 PM 39.8942 -118.2483 240° Southwest 355 409 26,000 -443 Descending Oakland Center
Sun 10:03:14 PM 39.8442 -118.3631 240° Southwest 362 417 26,000  Level Oakland Center
Sun 10:04:15 PM 39.7933 -118.4753 240° Southwest 363 418 26,000  Level Oakland Center
Sun 10:05:17 PM 39.7425 -118.5894 240° Southwest 365 420 26,000 -683 Level Oakland Center
Sun 10:06:18 PM 39.6922 -118.7025 240° Southwest 366 421 24,600 -2,164 Descending Oakland Center
Sun 10:07:19 PM 39.6347 -118.8331 240° Southwest 351 404 21,600 -2,656 Descending Oakland Center
Sun 10:08:20 PM 39.5858 -118.9397 239° Southwest 349 402 19,200 -2,459 Descending Oakland Center
Sun 10:09:21 PM 39.5381 -119.0461 240° Southwest 345 397 16,600 -2,508 Descending Oakland Center
Sun 10:10:22 PM 39.4906 -119.1506 240° Southwest 341 392 14,100 -1,770 Descending Oakland Center
Sun 10:11:23 PM 39.4439 -119.2528 239° Southwest 333 383 13,000 -787 Descending Oakland Center
Sun 10:12:24 PM 39.4061 -119.3378 240° Southwest 282 325 12,500 -976 Descending Oakland Center
Sun 10:13:26 PM 39.3678 -119.4189 239° Southwest 268 308 11,000 -757 Descending Oakland Center
Sun 10:19:08 PM 39.3640 -119.7680 239° Southwest 204 235 7,400 -675 Descending FlightAware ADS-B
Sun 10:19:48 PM 39.3980 -119.7670 North 185 213 6,700 -646 Descending FlightAware ADS-B
Sun 10:20:13 PM 39.3780 -119.7670 180° South 185 213 6,700 -1,333 Level FlightAware ADS-B
Sun 10:20:33 PM 39.4440 -119.7670 360° North 169 194 5,700 -1,333 Descending FlightAware ADS-B
Sun 10:20:58 PM 39.4610 -119.7670 360° North 169 194 5,700  Level FlightAware ADS-B

Login

Don't have an account? Register now (free) for customized features, flight alerts, and more!